createdAt,value
2018-09-17T00:00:18.581Z,1013.17
2018-09-17T00:01:18.572Z,1013.20
2018-09-17T00:02:18.565Z,1013.21
2018-09-17T00:03:18.592Z,1013.20
2018-09-17T00:04:18.538Z,1013.22
2018-09-17T00:05:18.705Z,1013.19
2018-09-17T00:06:18.518Z,1013.22
2018-09-17T00:07:18.506Z,1013.16
2018-09-17T00:08:18.529Z,1013.24
2018-09-17T00:09:18.484Z,1013.22
2018-09-17T00:10:18.520Z,1013.21
2018-09-17T00:11:18.601Z,1013.24
2018-09-17T00:12:18.489Z,1013.23
2018-09-17T00:13:18.443Z,1013.25
2018-09-17T00:14:18.473Z,1013.28
2018-09-17T00:15:18.419Z,1013.26
2018-09-17T00:16:18.442Z,1013.24
2018-09-17T00:17:18.478Z,1013.22
2018-09-17T00:18:18.393Z,1013.18
2018-09-17T00:19:18.438Z,1013.20
2018-09-17T00:20:18.408Z,1013.16
2018-09-17T00:21:18.355Z,1013.17
2018-09-17T00:22:18.353Z,1013.16
2018-09-17T00:23:18.334Z,1013.19
2018-09-17T00:24:18.378Z,1013.19
2018-09-17T00:25:18.347Z,1013.22
2018-09-17T00:26:18.315Z,1013.23
2018-09-17T00:27:18.395Z,1013.25
2018-09-17T00:28:18.346Z,1013.29
2018-09-17T00:29:18.296Z,1013.35
2018-09-17T00:30:18.256Z,1013.37
2018-09-17T00:31:18.248Z,1013.36
2018-09-17T00:32:18.241Z,1013.39
2018-09-17T00:33:18.226Z,1013.36
2018-09-17T00:34:18.284Z,1013.37
2018-09-17T00:35:18.287Z,1013.34
2018-09-17T00:36:18.255Z,1013.34
2018-09-17T00:37:18.180Z,1013.39
2018-09-17T00:38:18.168Z,1013.41
2018-09-17T00:39:18.161Z,1013.38
2018-09-17T00:40:18.186Z,1013.37
2018-09-17T00:41:18.137Z,1013.36
2018-09-17T00:42:18.131Z,1013.38
2018-09-17T00:43:18.114Z,1013.32
2018-09-17T00:44:18.114Z,1013.33
2018-09-17T00:45:18.116Z,1013.35
2018-09-17T00:46:18.089Z,1013.33
2018-09-17T00:47:18.072Z,1013.36
2018-09-17T00:48:18.062Z,1013.39
2018-09-17T00:49:18.053Z,1013.37
2018-09-17T00:50:18.070Z,1013.33
2018-09-17T00:51:18.027Z,1013.33
2018-09-17T00:52:18.019Z,1013.33
2018-09-17T00:53:18.009Z,1013.31
2018-09-17T00:54:18.012Z,1013.31
2018-09-17T00:55:17.985Z,1013.32
2018-09-17T00:56:17.996Z,1013.34
2018-09-17T00:57:17.964Z,1013.36
2018-09-17T00:58:17.982Z,1013.38
2018-09-17T00:59:17.941Z,1013.39
2018-09-17T01:00:17.930Z,1013.38
2018-09-17T01:01:17.942Z,1013.44
2018-09-17T01:02:17.909Z,1013.40
2018-09-17T01:03:17.903Z,1013.39
2018-09-17T01:04:17.886Z,1013.42
2018-09-17T01:05:17.875Z,1013.39
2018-09-17T01:06:17.888Z,1013.36
2018-09-17T01:07:17.862Z,1013.41
2018-09-17T01:08:17.841Z,1013.37
2018-09-17T01:09:17.834Z,1013.37
2018-09-17T01:10:17.820Z,1013.42
2018-09-17T01:11:17.832Z,1013.39
2018-09-17T01:12:17.800Z,1013.43
2018-09-17T01:13:17.788Z,1013.42
2018-09-17T01:14:17.776Z,1013.45
2018-09-17T01:15:17.765Z,1013.50
2018-09-17T01:16:17.782Z,1013.40
2018-09-17T01:17:17.758Z,1013.51
2018-09-17T01:18:17.734Z,1013.56
2018-09-17T01:19:17.722Z,1013.50
2018-09-17T01:20:17.713Z,1013.47
2018-09-17T01:21:17.723Z,1013.50
2018-09-17T01:22:17.690Z,1013.49
2018-09-17T01:23:17.681Z,1013.52
2018-09-17T01:24:17.671Z,1013.54
2018-09-17T01:25:17.657Z,1013.49
2018-09-17T01:26:17.674Z,1013.54
2018-09-17T01:27:17.636Z,1013.55
2018-09-17T01:28:17.626Z,1013.54
2018-09-17T01:29:17.617Z,1013.57
2018-09-17T01:30:17.628Z,1013.57
2018-09-17T01:31:17.594Z,1013.60
2018-09-17T01:32:17.608Z,1013.61
2018-09-17T01:33:17.571Z,1013.64
2018-09-17T01:34:17.559Z,1013.63
2018-09-17T01:35:17.550Z,1013.63
2018-09-17T01:36:17.539Z,1013.62
2018-09-17T01:37:17.555Z,1013.66
2018-09-17T01:38:17.516Z,1013.64
2018-09-17T01:39:17.506Z,1013.64
2018-09-17T01:40:17.508Z,1013.63
2018-09-17T01:41:17.485Z,1013.67
2018-09-17T01:42:17.505Z,1013.68
2018-09-17T01:43:17.465Z,1013.66
2018-09-17T01:44:17.452Z,1013.74
2018-09-17T01:45:17.441Z,1013.71
2018-09-17T01:46:17.461Z,1013.69
2018-09-17T01:47:17.421Z,1013.68
2018-09-17T01:48:17.433Z,1013.69
2018-09-17T01:49:17.398Z,1013.66
2018-09-17T01:50:17.386Z,1013.67
2018-09-17T01:51:17.375Z,1013.67
2018-09-17T01:52:17.373Z,1013.67
2018-09-17T01:53:17.389Z,1013.69
2018-09-17T01:54:17.344Z,1013.61
2018-09-17T01:55:17.331Z,1013.64
2018-09-17T01:56:17.322Z,1013.71
2018-09-17T01:57:17.311Z,1013.70
2018-09-17T01:58:17.323Z,1013.73
2018-09-17T01:59:17.292Z,1013.75
2018-09-17T02:00:17.280Z,1013.76
2018-09-17T02:01:17.270Z,1013.77
2018-09-17T02:02:17.255Z,1013.71
2018-09-17T02:03:17.293Z,1013.73
2018-09-17T02:04:17.235Z,1013.75
2018-09-17T02:05:17.224Z,1013.76
2018-09-17T02:06:17.213Z,1013.73
2018-09-17T02:07:17.207Z,1013.74
2018-09-17T02:08:17.191Z,1013.78
2018-09-17T02:09:17.206Z,1013.78
2018-09-17T02:10:17.171Z,1013.77
2018-09-17T02:11:17.161Z,1013.80
2018-09-17T02:12:17.149Z,1013.77
2018-09-17T02:13:17.140Z,1013.78
2018-09-17T02:14:17.157Z,1013.79
2018-09-17T02:15:17.118Z,1013.80
2018-09-17T02:16:17.109Z,1013.81
2018-09-17T02:17:17.094Z,1013.81
2018-09-17T02:18:17.087Z,1013.81
2018-09-17T02:19:17.097Z,1013.82
2018-09-17T02:20:17.062Z,1013.82
2018-09-17T02:21:17.054Z,1013.78
2018-09-17T02:22:17.042Z,1013.79
2018-09-17T02:23:17.030Z,1013.77
2018-09-17T02:24:17.051Z,1013.74
2018-09-17T02:25:17.009Z,1013.70
2018-09-17T02:26:17.005Z,1013.70
2018-09-17T02:27:16.988Z,1013.65
2018-09-17T02:28:16.978Z,1013.63
2018-09-17T02:29:16.967Z,1013.53
2018-09-17T02:30:16.980Z,1013.57
2018-09-17T02:31:16.948Z,1013.56
2018-09-17T02:32:16.935Z,1013.52
2018-09-17T02:33:16.924Z,1013.53
2018-09-17T02:34:16.913Z,1013.54
2018-09-17T02:35:16.929Z,1013.56
2018-09-17T02:36:16.913Z,1013.59
2018-09-17T02:37:16.882Z,1013.57
2018-09-17T02:38:16.884Z,1013.65
2018-09-17T02:39:16.862Z,1013.61
2018-09-17T02:40:16.877Z,1013.70
2018-09-17T02:41:16.841Z,1013.67
2018-09-17T02:42:16.829Z,1013.69
2018-09-17T02:43:16.824Z,1013.68
2018-09-17T02:44:16.808Z,1013.68
2018-09-17T02:45:16.798Z,1013.67
2018-09-17T02:46:16.811Z,1013.64
2018-09-17T02:47:16.777Z,1013.66
2018-09-17T02:48:16.765Z,1013.63
2018-09-17T02:49:16.776Z,1013.63
2018-09-17T02:50:16.746Z,1013.59
2018-09-17T02:51:16.758Z,1013.61
2018-09-17T02:52:16.725Z,1013.57
2018-09-17T02:53:16.713Z,1013.54
2018-09-17T02:54:16.709Z,1013.54
2018-09-17T02:55:16.691Z,1013.51
2018-09-17T02:56:16.711Z,1013.51
2018-09-17T02:57:16.670Z,1013.51
2018-09-17T02:58:16.662Z,1013.47
2018-09-17T02:59:16.674Z,1013.48
2018-09-17T03:00:16.639Z,1013.47
2018-09-17T03:01:16.626Z,1013.48
2018-09-17T03:02:16.642Z,1013.46
2018-09-17T03:03:16.606Z,1013.48
2018-09-17T03:04:16.594Z,1013.45
2018-09-17T03:05:16.584Z,1013.47
2018-09-17T03:06:16.578Z,1013.49
2018-09-17T03:07:16.586Z,1013.49
2018-09-17T03:08:16.551Z,1013.54
2018-09-17T03:09:16.541Z,1013.55
2018-09-17T03:10:16.530Z,1013.57
2018-09-17T03:11:16.519Z,1013.56
2018-09-17T03:12:16.553Z,1013.55
2018-09-17T03:13:16.497Z,1013.52
2018-09-17T03:14:16.488Z,1013.51
2018-09-17T03:15:16.480Z,1013.49
2018-09-17T03:16:16.476Z,1013.56
2018-09-17T03:17:16.480Z,1013.60
2018-09-17T03:18:16.448Z,1013.60
2018-09-17T03:19:16.434Z,1013.63
2018-09-17T03:20:16.424Z,1013.62
2018-09-17T03:21:16.436Z,1013.66
2018-09-17T03:22:16.439Z,1013.59
2018-09-17T03:23:16.395Z,1013.58
2018-09-17T03:24:16.384Z,1013.62
2018-09-17T03:25:16.373Z,1013.55
2018-09-17T03:26:16.360Z,1013.62
2018-09-17T03:27:16.397Z,1013.63
2018-09-17T03:28:16.337Z,1013.61
2018-09-17T03:29:16.326Z,1013.64
2018-09-17T03:30:16.315Z,1013.61
2018-09-17T03:31:16.304Z,1013.65
2018-09-17T03:32:16.299Z,1013.70
2018-09-17T03:33:16.309Z,1013.68
2018-09-17T03:34:16.273Z,1013.72
2018-09-17T03:35:16.272Z,1013.73
2018-09-17T03:36:16.249Z,1013.73
2018-09-17T03:37:16.239Z,1013.74
2018-09-17T03:38:16.264Z,1013.75
2018-09-17T03:39:16.222Z,1013.74
2018-09-17T03:40:16.207Z,1013.74
2018-09-17T03:41:16.196Z,1013.69
2018-09-17T03:42:16.186Z,1013.70
2018-09-17T03:43:16.177Z,1013.68
2018-09-17T03:44:16.188Z,1013.66
2018-09-17T03:45:16.168Z,1013.68
2018-09-17T03:46:16.181Z,1013.66
2018-09-17T03:47:16.133Z,1013.64
2018-09-17T03:48:16.123Z,1013.69
2018-09-17T03:49:16.134Z,1013.67
2018-09-17T03:50:16.100Z,1013.62
2018-09-17T03:51:16.090Z,1013.63
2018-09-17T03:52:16.080Z,1013.67
2018-09-17T03:53:16.070Z,1013.68
2018-09-17T03:54:16.094Z,1013.65
2018-09-17T03:55:16.051Z,1013.72
2018-09-17T03:56:16.041Z,1013.68
2018-09-17T03:57:16.026Z,1013.69
2018-09-17T03:58:16.021Z,1013.62
2018-09-17T03:59:16.007Z,1013.70
2018-09-17T04:00:16.018Z,1013.74
2018-09-17T04:01:15.984Z,1013.74
2018-09-17T04:02:15.973Z,1013.82
2018-09-17T04:03:15.964Z,1013.83
2018-09-17T04:04:15.952Z,1013.81
2018-09-17T04:05:15.967Z,1013.88
2018-09-17T04:06:15.929Z,1013.82
2018-09-17T04:07:15.920Z,1013.81
2018-09-17T04:08:15.914Z,1013.77
2018-09-17T04:09:15.898Z,1013.73
2018-09-17T04:10:15.911Z,1013.69
2018-09-17T04:11:15.876Z,1013.72
2018-09-17T04:12:15.868Z,1013.73
2018-09-17T04:13:15.855Z,1013.72
2018-09-17T04:14:15.845Z,1013.73
2018-09-17T04:15:15.861Z,1013.73
2018-09-17T04:16:15.823Z,1013.76
2018-09-17T04:17:15.812Z,1013.75
2018-09-17T04:18:15.824Z,1013.77
2018-09-17T04:19:15.791Z,1013.75
2018-09-17T04:20:15.780Z,1013.78
2018-09-17T04:21:15.794Z,1013.74
2018-09-17T04:22:15.759Z,1013.73
2018-09-17T04:23:15.748Z,1013.72
2018-09-17T04:24:15.741Z,1013.73
2018-09-17T04:25:15.726Z,1013.73
2018-09-17T04:26:15.741Z,1013.71
2018-09-17T04:27:15.704Z,1013.72
2018-09-17T04:28:15.693Z,1013.77
2018-09-17T04:29:15.682Z,1013.77
2018-09-17T04:30:15.672Z,1013.77
2018-09-17T04:31:15.694Z,1013.77
2018-09-17T04:32:15.651Z,1013.75
2018-09-17T04:33:15.639Z,1013.73
2018-09-17T04:34:15.632Z,1013.74
2018-09-17T04:35:15.623Z,1013.71
2018-09-17T04:36:15.612Z,1013.76
2018-09-17T04:37:15.634Z,1013.77
2018-09-17T04:38:15.587Z,1013.80
2018-09-17T04:39:15.576Z,1013.79
2018-09-17T04:40:15.566Z,1013.77
2018-09-17T04:41:15.586Z,1013.78
2018-09-17T04:42:15.568Z,1013.73
2018-09-17T04:43:15.532Z,1013.69
2018-09-17T04:44:15.522Z,1013.72
2018-09-17T04:45:15.513Z,1013.69
2018-09-17T04:46:15.501Z,1013.68
2018-09-17T04:47:15.513Z,1013.67
2018-09-17T04:48:15.477Z,1013.66
2018-09-17T04:49:15.469Z,1013.71
2018-09-17T04:50:15.460Z,1013.68
2018-09-17T04:51:15.449Z,1013.70
2018-09-17T04:52:15.469Z,1013.65
2018-09-17T04:53:15.428Z,1013.68
2018-09-17T04:54:15.430Z,1013.69
2018-09-17T04:55:15.406Z,1013.70
2018-09-17T04:56:15.440Z,1013.76
2018-09-17T04:57:15.414Z,1013.80
2018-09-17T04:58:15.395Z,1013.79
2018-09-17T04:59:15.362Z,1013.84
2018-09-17T05:00:15.349Z,1013.91
2018-09-17T05:01:15.338Z,1013.93
2018-09-17T05:02:15.331Z,1013.94
2018-09-17T05:03:15.344Z,1013.90
2018-09-17T05:04:15.323Z,1013.92
2018-09-17T05:05:15.299Z,1013.94
2018-09-17T05:06:15.286Z,1013.90
2018-09-17T05:07:15.330Z,1013.90
2018-09-17T05:08:15.290Z,1013.90
2018-09-17T05:09:15.253Z,1013.90
2018-09-17T05:10:15.247Z,1013.91
2018-09-17T05:11:15.231Z,1013.92
2018-09-17T05:12:15.228Z,1013.93
2018-09-17T05:13:15.387Z,1013.92
2018-09-17T05:14:15.200Z,1013.91
2018-09-17T05:15:15.191Z,1013.92
2018-09-17T05:16:15.182Z,1013.91
2018-09-17T05:17:15.175Z,1013.89
2018-09-17T05:18:15.159Z,1013.92
2018-09-17T05:19:15.169Z,1013.90
2018-09-17T05:20:15.142Z,1013.92
2018-09-17T05:21:15.131Z,1013.89
2018-09-17T05:22:15.121Z,1013.93
2018-09-17T05:23:15.102Z,1013.93
2018-09-17T05:24:15.116Z,1013.88
2018-09-17T05:25:15.083Z,1013.90
2018-09-17T05:26:15.070Z,1013.91
2018-09-17T05:27:15.075Z,1013.89
2018-09-17T05:28:15.074Z,1013.92
2018-09-17T05:29:15.076Z,1013.90
2018-09-17T05:30:15.028Z,1013.92
2018-09-17T05:31:15.016Z,1013.91
2018-09-17T05:32:15.010Z,1013.89
2018-09-17T05:33:15.001Z,1013.89
2018-09-17T05:34:14.985Z,1013.88
2018-09-17T05:35:14.998Z,1013.91
2018-09-17T05:36:14.968Z,1013.90
2018-09-17T05:37:14.952Z,1013.92
2018-09-17T05:38:14.947Z,1013.91
2018-09-17T05:39:14.937Z,1013.91
2018-09-17T05:40:14.961Z,1013.97
2018-09-17T05:41:14.911Z,1013.92
2018-09-17T05:42:14.901Z,1013.92
2018-09-17T05:43:14.890Z,1013.90
2018-09-17T05:44:14.878Z,1013.93
2018-09-17T05:45:14.921Z,1013.90
2018-09-17T05:46:14.858Z,1013.88
2018-09-17T05:47:14.848Z,1013.94
2018-09-17T05:48:14.836Z,1013.86
2018-09-17T05:49:14.826Z,1013.90
2018-09-17T05:50:14.828Z,1013.89
2018-09-17T05:51:14.839Z,1013.89
2018-09-17T05:52:14.793Z,1013.89
2018-09-17T05:53:14.781Z,1013.89
2018-09-17T05:54:14.771Z,1013.92
2018-09-17T05:55:14.761Z,1013.92
2018-09-17T05:56:14.775Z,1013.95
2018-09-17T05:57:14.740Z,1013.97
2018-09-17T05:58:14.728Z,1013.96
2018-09-17T05:59:14.721Z,1013.98
2018-09-17T06:00:14.743Z,1013.93
2018-09-17T06:01:14.700Z,1013.93
2018-09-17T06:02:14.704Z,1013.89
2018-09-17T06:03:14.677Z,1013.88
2018-09-17T06:04:14.664Z,1013.88
2018-09-17T06:05:14.654Z,1013.89
2018-09-17T06:06:14.669Z,1013.89
2018-09-17T06:07:14.634Z,1013.92
2018-09-17T06:08:14.622Z,1013.89
2018-09-17T06:09:14.610Z,1013.89
2018-09-17T06:10:14.601Z,1013.92
2018-09-17T06:11:14.615Z,1013.91
2018-09-17T06:12:14.580Z,1013.90
2018-09-17T06:13:14.568Z,1013.94
2018-09-17T06:14:14.559Z,1013.87
2018-09-17T06:15:14.565Z,1013.93
2018-09-17T06:16:14.610Z,1013.88
2018-09-17T06:17:14.573Z,1013.88
2018-09-17T06:18:14.519Z,1013.89
2018-09-17T06:19:14.506Z,1013.96
2018-09-17T06:20:14.518Z,1013.93
2018-09-17T06:21:14.509Z,1013.90
2018-09-17T06:22:14.472Z,1013.89
2018-09-17T06:23:14.509Z,1013.90
2018-09-17T06:24:14.450Z,1013.91
2018-09-17T06:25:14.464Z,1013.87
2018-09-17T06:26:14.465Z,1013.92
2018-09-17T06:27:14.423Z,1013.97
2018-09-17T06:28:14.409Z,1013.87
2018-09-17T06:29:14.398Z,1013.86
2018-09-17T06:30:14.432Z,1013.88
2018-09-17T06:31:14.380Z,1013.91
2018-09-17T06:32:14.410Z,1013.89
2018-09-17T06:33:14.357Z,1013.95
2018-09-17T06:34:14.344Z,1013.96
2018-09-17T06:35:14.339Z,1013.95
2018-09-17T06:36:14.378Z,1013.91
2018-09-17T06:37:14.341Z,1013.93
2018-09-17T06:38:14.310Z,1013.95
2018-09-17T06:39:14.290Z,1013.88
2018-09-17T06:40:14.281Z,1013.92
2018-09-17T06:41:14.267Z,1013.92
2018-09-17T06:42:14.258Z,1013.91
2018-09-17T06:43:14.277Z,1013.89
2018-09-17T06:44:14.236Z,1013.88
2018-09-17T06:45:14.229Z,1013.89
2018-09-17T06:46:14.220Z,1013.88
2018-09-17T06:47:14.208Z,1013.89
2018-09-17T06:48:14.240Z,1013.90
2018-09-17T06:49:14.182Z,1013.86
2018-09-17T06:50:14.173Z,1013.83
2018-09-17T06:51:14.163Z,1013.85
2018-09-17T06:52:14.153Z,1013.83
2018-09-17T06:53:14.168Z,1013.83
2018-09-17T06:54:14.129Z,1013.83
2018-09-17T06:55:14.117Z,1013.83
2018-09-17T06:56:14.107Z,1013.94
2018-09-17T06:57:14.097Z,1013.91
2018-09-17T06:58:14.122Z,1013.92
2018-09-17T06:59:14.080Z,1013.94
2018-09-17T07:00:14.064Z,1013.95
2018-09-17T07:01:14.054Z,1013.94
2018-09-17T07:02:14.043Z,1013.91
2018-09-17T07:03:14.036Z,1013.98
2018-09-17T07:04:14.043Z,1013.97
2018-09-17T07:05:14.010Z,1013.97
2018-09-17T07:06:14.013Z,1014.01
2018-09-17T07:07:13.989Z,1014.01
2018-09-17T07:08:13.981Z,1014.04
2018-09-17T07:09:13.991Z,1014.02
2018-09-17T07:10:13.957Z,1014.00
2018-09-17T07:11:13.950Z,1014.01
2018-09-17T07:12:13.941Z,1014.01
2018-09-17T07:13:13.925Z,1014.06
2018-09-17T07:14:13.943Z,1014.03
2018-09-17T07:15:13.908Z,1014.04
2018-09-17T07:16:13.896Z,1014.09
2018-09-17T07:17:13.882Z,1014.09
2018-09-17T07:18:13.877Z,1014.11
2018-09-17T07:19:13.862Z,1014.12
2018-09-17T07:20:13.874Z,1014.10
2018-09-17T07:21:13.857Z,1014.12
2018-09-17T07:22:13.833Z,1014.08
2018-09-17T07:23:13.818Z,1014.09
2018-09-17T07:24:13.811Z,1014.07
2018-09-17T07:25:13.869Z,1014.08
2018-09-17T07:26:13.785Z,1014.09
2018-09-17T07:27:13.780Z,1014.11
2018-09-17T07:28:13.765Z,1014.10
2018-09-17T07:29:13.753Z,1014.06
2018-09-17T07:30:13.779Z,1014.08
2018-09-17T07:31:13.739Z,1014.11
2018-09-17T07:32:13.723Z,1014.09
2018-09-17T07:33:13.712Z,1014.07
2018-09-17T07:34:13.706Z,1014.08
2018-09-17T07:35:13.689Z,1014.15
2018-09-17T07:36:13.734Z,1014.13
2018-09-17T07:37:13.680Z,1014.15
2018-09-17T07:38:13.657Z,1014.17
2018-09-17T07:39:13.647Z,1014.14
2018-09-17T07:40:13.636Z,1014.13
2018-09-17T07:41:13.650Z,1014.13
2018-09-17T07:42:13.613Z,1014.13
2018-09-17T07:43:13.602Z,1014.14
2018-09-17T07:44:13.606Z,1014.12
2018-09-17T07:45:13.581Z,1014.14
2018-09-17T07:46:13.598Z,1014.15
2018-09-17T07:47:13.565Z,1014.18
2018-09-17T07:48:13.550Z,1014.18
2018-09-17T07:49:13.542Z,1014.15
2018-09-17T07:50:13.529Z,1014.18
2018-09-17T07:51:13.554Z,1014.20
2018-09-17T07:52:13.519Z,1014.19
2018-09-17T07:53:13.574Z,1014.15
2018-09-17T07:54:13.483Z,1014.12
2018-09-17T07:55:13.561Z,1014.15
2018-09-17T07:56:13.464Z,1014.14
2018-09-17T07:57:13.476Z,1014.14
2018-09-17T07:58:13.442Z,1014.17
2018-09-17T07:59:13.433Z,1014.18
2018-09-17T08:00:13.421Z,1014.18
2018-09-17T08:01:13.406Z,1014.17
2018-09-17T08:02:13.421Z,1014.17
2018-09-17T08:03:13.386Z,1014.11
2018-09-17T08:04:13.386Z,1014.09
2018-09-17T08:05:13.365Z,1014.13
2018-09-17T08:06:13.353Z,1014.10
2018-09-17T08:07:13.405Z,1014.12
2018-09-17T08:08:13.339Z,1014.08
2018-09-17T08:09:13.325Z,1014.13
2018-09-17T08:10:13.314Z,1014.12
2018-09-17T08:11:13.300Z,1014.08
2018-09-17T08:12:13.320Z,1014.05
2018-09-17T08:13:13.278Z,1014.07
2018-09-17T08:14:13.271Z,1014.05
2018-09-17T08:15:13.255Z,1014.01
2018-09-17T08:16:13.246Z,1013.99
2018-09-17T08:17:13.233Z,1014.00
2018-09-17T08:18:13.248Z,1013.94
2018-09-17T08:19:13.212Z,1013.97
2018-09-17T08:20:13.210Z,1013.98
2018-09-17T08:21:13.195Z,1013.91
2018-09-17T08:22:13.180Z,1013.94
2018-09-17T08:23:13.193Z,1013.90
2018-09-17T08:24:13.161Z,1013.91
2018-09-17T08:25:13.149Z,1013.96
2018-09-17T08:26:13.138Z,1013.91
2018-09-17T08:27:13.137Z,1013.89
2018-09-17T08:28:13.147Z,1013.94
2018-09-17T08:29:13.106Z,1013.89
2018-09-17T08:30:13.110Z,1013.88
2018-09-17T08:31:13.176Z,1013.84
2018-09-17T08:32:13.079Z,1013.88
2018-09-17T08:33:13.069Z,1013.83
2018-09-17T08:34:13.077Z,1013.84
2018-09-17T08:35:13.043Z,1013.81
2018-09-17T08:36:13.034Z,1013.78
2018-09-17T08:37:13.022Z,1013.81
2018-09-17T08:38:13.034Z,1013.81
2018-09-17T08:39:13.025Z,1013.79
2018-09-17T08:40:13.010Z,1013.74
2018-09-17T08:41:12.977Z,1013.77
2018-09-17T08:42:12.968Z,1013.71
2018-09-17T08:43:12.957Z,1013.75
2018-09-17T08:44:12.972Z,1013.74
2018-09-17T08:45:12.935Z,1013.72
2018-09-17T08:46:12.924Z,1013.74
2018-09-17T08:47:12.917Z,1013.75
2018-09-17T08:48:12.907Z,1013.72
2018-09-17T08:49:12.923Z,1013.77
2018-09-17T08:50:12.886Z,1013.78
2018-09-17T08:51:12.873Z,1013.76
2018-09-17T08:52:12.922Z,1013.74
2018-09-17T08:53:12.950Z,1013.75
2018-09-17T08:54:12.845Z,1013.76
2018-09-17T08:55:12.867Z,1013.77
2018-09-17T08:56:12.840Z,1013.76
2018-09-17T08:57:12.835Z,1013.80
2018-09-17T08:58:12.821Z,1013.81
2018-09-17T08:59:12.801Z,1013.75
2018-09-17T09:00:12.804Z,1013.78
2018-09-17T09:01:12.760Z,1013.78
2018-09-17T09:02:12.752Z,1013.80
2018-09-17T09:03:12.761Z,1013.77
2018-09-17T09:04:12.731Z,1013.78
2018-09-17T09:05:12.759Z,1013.81
2018-09-17T09:06:13.386Z,1013.79
2018-09-17T09:07:12.719Z,1013.79
2018-09-17T09:08:12.690Z,1013.79
2018-09-17T09:09:12.674Z,1013.79
2018-09-17T09:10:12.665Z,1013.77
2018-09-17T09:11:12.685Z,1013.75
2018-09-17T09:12:12.666Z,1013.70
2018-09-17T09:13:12.631Z,1013.65
2018-09-17T09:14:12.621Z,1013.67
2018-09-17T09:15:12.607Z,1013.66
2018-09-17T09:16:12.616Z,1013.61
2018-09-17T09:17:12.611Z,1013.57
2018-09-17T09:18:12.576Z,1013.60
2018-09-17T09:19:12.566Z,1013.58
2018-09-17T09:20:12.554Z,1013.59
2018-09-17T09:21:12.544Z,1013.57
2018-09-17T09:22:12.557Z,1013.53
2018-09-17T09:23:12.521Z,1013.49
2018-09-17T09:24:12.515Z,1013.53
2018-09-17T09:25:12.501Z,1013.51
2018-09-17T09:26:12.530Z,1013.47
2018-09-17T09:27:12.511Z,1013.46
2018-09-17T09:28:12.476Z,1013.46
2018-09-17T09:29:12.457Z,1013.39
2018-09-17T09:30:12.450Z,1013.43
2018-09-17T09:31:12.444Z,1013.39
2018-09-17T09:32:12.505Z,1013.35
2018-09-17T09:33:12.416Z,1013.36
2018-09-17T09:34:12.404Z,1013.32
2018-09-17T09:35:12.395Z,1013.33
2018-09-17T09:36:12.385Z,1013.24
2018-09-17T09:37:12.373Z,1013.26
2018-09-17T09:38:12.452Z,1013.24
2018-09-17T09:39:12.369Z,1013.30
2018-09-17T09:40:12.342Z,1013.24
2018-09-17T09:41:12.330Z,1013.21
2018-09-17T09:42:12.322Z,1013.22
2018-09-17T09:43:12.342Z,1013.19
2018-09-17T09:44:12.298Z,1013.18
2018-09-17T09:45:12.287Z,1013.18
2018-09-17T09:46:12.282Z,1013.17
2018-09-17T09:47:12.269Z,1013.20
2018-09-17T09:48:12.255Z,1013.19
2018-09-17T09:49:12.299Z,1013.23
2018-09-17T09:50:12.237Z,1013.21
2018-09-17T09:51:12.234Z,1013.22
2018-09-17T09:52:12.221Z,1013.15
2018-09-17T09:53:12.204Z,1013.10
2018-09-17T09:54:12.212Z,1013.11
2018-09-17T09:55:12.182Z,1013.07
2018-09-17T09:56:12.175Z,1013.06
2018-09-17T09:57:12.160Z,1013.11
2018-09-17T09:58:12.148Z,1013.07
2018-09-17T09:59:12.173Z,1013.05
2018-09-17T10:00:12.125Z,1013.07
2018-09-17T10:01:12.115Z,1013.03
2018-09-17T10:02:12.116Z,1013.04
2018-09-17T10:03:12.097Z,1013.03
2018-09-17T10:04:12.112Z,1013.00
2018-09-17T10:05:12.073Z,1013.00
2018-09-17T10:06:12.064Z,1012.94
2018-09-17T10:07:12.054Z,1012.92
2018-09-17T10:08:12.041Z,1012.96
2018-09-17T10:09:12.060Z,1012.87
2018-09-17T10:10:12.023Z,1012.88
2018-09-17T10:11:12.009Z,1012.82
2018-09-17T10:12:12.011Z,1012.78
2018-09-17T10:13:11.990Z,1012.81
2018-09-17T10:14:11.980Z,1012.78
2018-09-17T10:15:11.994Z,1012.76
2018-09-17T10:16:11.956Z,1012.75
2018-09-17T10:17:11.944Z,1012.72
2018-09-17T10:18:11.934Z,1012.77
2018-09-17T10:19:11.930Z,1012.73
2018-09-17T10:20:11.939Z,1012.67
2018-09-17T10:21:11.909Z,1012.70
2018-09-17T10:22:11.932Z,1012.65
2018-09-17T10:23:11.883Z,1012.60
2018-09-17T10:24:11.873Z,1012.60
2018-09-17T10:25:11.904Z,1012.60
2018-09-17T10:26:11.848Z,1012.62
2018-09-17T10:27:11.838Z,1012.64
2018-09-17T10:28:11.830Z,1012.62
2018-09-17T10:29:11.830Z,1012.60
2018-09-17T10:30:11.842Z,1012.59
2018-09-17T10:31:11.796Z,1012.61
2018-09-17T10:32:11.790Z,1012.57
2018-09-17T10:33:11.794Z,1012.60
2018-09-17T10:34:11.766Z,1012.59
2018-09-17T10:35:11.801Z,1012.57
2018-09-17T10:36:11.750Z,1012.58
2018-09-17T10:37:11.731Z,1012.54
2018-09-17T10:38:11.719Z,1012.51
2018-09-17T10:39:11.710Z,1012.54
2018-09-17T10:40:11.758Z,1012.55
2018-09-17T10:41:11.692Z,1012.51
2018-09-17T10:42:11.683Z,1012.50
2018-09-17T10:43:11.681Z,1012.49
2018-09-17T10:44:11.659Z,1012.48
2018-09-17T10:45:11.668Z,1012.44
2018-09-17T10:46:11.667Z,1012.43
2018-09-17T10:47:11.631Z,1012.38
2018-09-17T10:48:11.645Z,1012.36
2018-09-17T10:49:11.602Z,1012.34
2018-09-17T10:50:11.591Z,1012.36
2018-09-17T10:51:11.605Z,1012.33
2018-09-17T10:52:11.583Z,1012.33
2018-09-17T10:53:11.561Z,1012.30
2018-09-17T10:54:11.548Z,1012.28
2018-09-17T10:55:11.559Z,1012.26
2018-09-17T10:56:11.563Z,1012.30
2018-09-17T10:57:11.529Z,1012.31
2018-09-17T10:58:11.507Z,1012.28
2018-09-17T10:59:11.497Z,1012.28
2018-09-17T11:00:11.487Z,1012.21
2018-09-17T11:01:11.476Z,1012.23
2018-09-17T11:02:11.486Z,1012.22
2018-09-17T11:03:11.452Z,1012.24
2018-09-17T11:04:11.443Z,1012.24
2018-09-17T11:05:11.436Z,1012.27
2018-09-17T11:06:11.421Z,1012.28
2018-09-17T11:07:11.442Z,1012.23
2018-09-17T11:08:11.420Z,1012.22
2018-09-17T11:09:11.392Z,1012.16
2018-09-17T11:10:11.386Z,1012.17
2018-09-17T11:11:11.370Z,1012.20
2018-09-17T11:12:11.379Z,1012.20
2018-09-17T11:13:11.349Z,1012.18
2018-09-17T11:14:11.338Z,1012.16
2018-09-17T11:15:11.325Z,1012.11
2018-09-17T11:16:11.315Z,1012.11
2018-09-17T11:17:11.340Z,1012.07
2018-09-17T11:18:11.294Z,1012.06
2018-09-17T11:19:11.283Z,1012.08
2018-09-17T11:20:11.272Z,1012.01
2018-09-17T11:21:11.289Z,1011.98
2018-09-17T11:22:11.251Z,1012.03
2018-09-17T11:23:11.275Z,1012.02
2018-09-17T11:24:11.231Z,1012.00
2018-09-17T11:25:11.255Z,1012.04
2018-09-17T11:26:11.207Z,1012.03
2018-09-17T11:27:11.201Z,1012.09
2018-09-17T11:28:11.210Z,1012.06
2018-09-17T11:29:11.177Z,1012.04
2018-09-17T11:30:11.184Z,1012.02
2018-09-17T11:31:11.175Z,1012.05
2018-09-17T11:32:11.146Z,1012.07
2018-09-17T11:33:11.167Z,1012.03
2018-09-17T11:34:11.127Z,1012.02
2018-09-17T11:35:11.116Z,1012.06
2018-09-17T11:36:11.120Z,1011.95
2018-09-17T11:37:11.093Z,1011.96
2018-09-17T11:38:11.109Z,1011.93
2018-09-17T11:39:11.073Z,1011.94
2018-09-17T11:40:11.061Z,1011.90
2018-09-17T11:41:11.095Z,1011.90
2018-09-17T11:42:11.041Z,1011.88
2018-09-17T11:43:11.034Z,1011.88
2018-09-17T11:44:11.057Z,1011.88
2018-09-17T11:45:11.008Z,1011.90
2018-09-17T11:46:11.000Z,1011.82
2018-09-17T11:47:10.989Z,1011.82
2018-09-17T11:48:11.014Z,1011.76
2018-09-17T11:49:10.990Z,1011.76
2018-09-17T11:50:11.048Z,1011.75
2018-09-17T11:51:11.026Z,1011.77
2018-09-17T11:52:10.956Z,1011.74
2018-09-17T11:53:10.934Z,1011.76
2018-09-17T11:54:10.956Z,1011.82
2018-09-17T11:55:10.903Z,1011.73
2018-09-17T11:56:10.896Z,1011.75
2018-09-17T11:57:10.885Z,1011.73
2018-09-17T11:58:10.940Z,1011.75
2018-09-17T11:59:10.859Z,1011.78
2018-09-17T12:00:10.955Z,1011.86
2018-09-17T12:01:10.842Z,1011.82
2018-09-17T12:02:10.867Z,1011.80
2018-09-17T12:03:10.834Z,1011.86
2018-09-17T12:04:10.825Z,1011.84
2018-09-17T12:05:10.847Z,1011.88